sensor_id;sensor_type;location;lat;lon;timestamp;P1;durP1;ratioP1;P2;durP2;ratioP2
18082;SDS011;9168;51.194;6.840;2023-11-18T00:01:45;85.50;;;29.73;;
18082;SDS011;9168;51.194;6.840;2023-11-18T00:04:12;81.90;;;29.98;;
18082;SDS011;9168;51.194;6.840;2023-11-18T00:06:41;75.70;;;29.67;;
18082;SDS011;9168;51.194;6.840;2023-11-18T00:09:10;76.75;;;30.40;;
18082;SDS011;9168;51.194;6.840;2023-11-18T00:11:39;79.78;;;30.25;;
18082;SDS011;9168;51.194;6.840;2023-11-18T00:14:07;76.03;;;29.40;;
18082;SDS011;9168;51.194;6.840;2023-11-18T00:16:35;78.95;;;29.10;;
18082;SDS011;9168;51.194;6.840;2023-11-18T00:19:02;84.25;;;29.73;;
18082;SDS011;9168;51.194;6.840;2023-11-18T00:21:30;81.97;;;29.77;;
18082;SDS011;9168;51.194;6.840;2023-11-18T00:23:57;81.00;;;30.35;;
18082;SDS011;9168;51.194;6.840;2023-11-18T00:26:25;77.25;;;30.65;;
18082;SDS011;9168;51.194;6.840;2023-11-18T00:28:52;93.30;;;30.95;;
18082;SDS011;9168;51.194;6.840;2023-11-18T00:31:19;76.80;;;31.30;;
18082;SDS011;9168;51.194;6.840;2023-11-18T00:33:46;75.95;;;29.80;;
18082;SDS011;9168;51.194;6.840;2023-11-18T00:36:13;76.30;;;29.83;;
18082;SDS011;9168;51.194;6.840;2023-11-18T00:38:40;79.10;;;29.88;;
18082;SDS011;9168;51.194;6.840;2023-11-18T00:41:07;79.97;;;30.27;;
18082;SDS011;9168;51.194;6.840;2023-11-18T00:43:35;74.13;;;29.25;;
18082;SDS011;9168;51.194;6.840;2023-11-18T00:46:02;74.70;;;28.40;;
18082;SDS011;9168;51.194;6.840;2023-11-18T00:48:30;69.20;;;28.40;;
18082;SDS011;9168;51.194;6.840;2023-11-18T00:50:57;73.97;;;28.35;;
18082;SDS011;9168;51.194;6.840;2023-11-18T00:53:24;68.03;;;27.92;;
18082;SDS011;9168;51.194;6.840;2023-11-18T00:55:51;67.57;;;27.02;;
18082;SDS011;9168;51.194;6.840;2023-11-18T00:58:18;62.75;;;26.08;;
18082;SDS011;9168;51.194;6.840;2023-11-18T01:00:46;60.83;;;26.17;;
18082;SDS011;9168;51.194;6.840;2023-11-18T01:03:13;71.10;;;29.10;;
18082;SDS011;9168;51.194;6.840;2023-11-18T01:05:40;62.15;;;26.30;;
18082;SDS011;9168;51.194;6.840;2023-11-18T01:08:07;59.22;;;24.73;;
18082;SDS011;9168;51.194;6.840;2023-11-18T01:10:34;62.67;;;26.20;;
18082;SDS011;9168;51.194;6.840;2023-11-18T01:13:01;57.22;;;25.05;;
18082;SDS011;9168;51.194;6.840;2023-11-18T01:15:27;58.90;;;25.63;;
18082;SDS011;9168;51.194;6.840;2023-11-18T01:17:58;58.90;;;25.00;;
18082;SDS011;9168;51.194;6.840;2023-11-18T01:20:24;56.40;;;25.35;;
18082;SDS011;9168;51.194;6.840;2023-11-18T01:22:51;53.80;;;23.25;;
18082;SDS011;9168;51.194;6.840;2023-11-18T01:25:18;62.25;;;25.55;;
18082;SDS011;9168;51.194;6.840;2023-11-18T01:27:45;55.78;;;25.42;;
18082;SDS011;9168;51.194;6.840;2023-11-18T01:30:13;54.28;;;25.70;;
18082;SDS011;9168;51.194;6.840;2023-11-18T01:32:40;62.70;;;26.10;;
18082;SDS011;9168;51.194;6.840;2023-11-18T01:35:09;56.03;;;24.42;;
18082;SDS011;9168;51.194;6.840;2023-11-18T01:37:37;51.58;;;23.20;;
18082;SDS011;9168;51.194;6.840;2023-11-18T01:40:05;53.05;;;23.15;;
18082;SDS011;9168;51.194;6.840;2023-11-18T01:42:33;63.08;;;25.77;;
18082;SDS011;9168;51.194;6.840;2023-11-18T01:45:00;57.25;;;25.13;;
18082;SDS011;9168;51.194;6.840;2023-11-18T01:47:28;59.50;;;24.65;;
18082;SDS011;9168;51.194;6.840;2023-11-18T01:49:57;55.13;;;23.80;;
18082;SDS011;9168;51.194;6.840;2023-11-18T01:52:27;51.47;;;24.98;;
18082;SDS011;9168;51.194;6.840;2023-11-18T01:54:55;61.33;;;25.80;;
18082;SDS011;9168;51.194;6.840;2023-11-18T01:57:22;66.50;;;25.83;;
18082;SDS011;9168;51.194;6.840;2023-11-18T01:59:52;54.60;;;24.73;;
18082;SDS011;9168;51.194;6.840;2023-11-18T02:02:19;59.53;;;24.48;;
18082;SDS011;9168;51.194;6.840;2023-11-18T02:04:47;53.25;;;22.80;;
18082;SDS011;9168;51.194;6.840;2023-11-18T02:07:14;57.42;;;24.52;;
18082;SDS011;9168;51.194;6.840;2023-11-18T02:09:42;55.22;;;23.17;;
18082;SDS011;9168;51.194;6.840;2023-11-18T02:12:13;51.20;;;24.17;;
18082;SDS011;9168;51.194;6.840;2023-11-18T02:14:46;54.65;;;22.67;;
18082;SDS011;9168;51.194;6.840;2023-11-18T02:17:17;46.50;;;21.50;;
18082;SDS011;9168;51.194;6.840;2023-11-18T02:19:49;57.40;;;23.63;;
18082;SDS011;9168;51.194;6.840;2023-11-18T02:22:18;52.67;;;24.35;;
18082;SDS011;9168;51.194;6.840;2023-11-18T02:24:48;51.65;;;22.05;;
18082;SDS011;9168;51.194;6.840;2023-11-18T02:27:16;53.53;;;23.90;;
18082;SDS011;9168;51.194;6.840;2023-11-18T02:29:45;53.70;;;22.83;;
18082;SDS011;9168;51.194;6.840;2023-11-18T02:32:15;57.97;;;23.02;;
18082;SDS011;9168;51.194;6.840;2023-11-18T02:34:52;51.22;;;21.80;;
18082;SDS011;9168;51.194;6.840;2023-11-18T02:37:28;49.15;;;21.75;;
18082;SDS011;9168;51.194;6.840;2023-11-18T02:39:59;50.40;;;21.88;;
18082;SDS011;9168;51.194;6.840;2023-11-18T02:42:34;46.95;;;22.52;;
18082;SDS011;9168;51.194;6.840;2023-11-18T02:45:03;43.63;;;20.27;;
18082;SDS011;9168;51.194;6.840;2023-11-18T02:47:33;46.13;;;21.40;;
18082;SDS011;9168;51.194;6.840;2023-11-18T02:50:00;46.67;;;21.08;;
18082;SDS011;9168;51.194;6.840;2023-11-18T02:52:35;44.08;;;20.70;;
18082;SDS011;9168;51.194;6.840;2023-11-18T02:55:03;41.15;;;19.73;;
18082;SDS011;9168;51.194;6.840;2023-11-18T02:57:31;39.50;;;19.27;;
18082;SDS011;9168;51.194;6.840;2023-11-18T03:00:00;39.30;;;18.08;;
18082;SDS011;9168;51.194;6.840;2023-11-18T03:02:29;40.50;;;19.13;;
18082;SDS011;9168;51.194;6.840;2023-11-18T03:04:56;38.78;;;18.65;;
18082;SDS011;9168;51.194;6.840;2023-11-18T03:07:23;36.83;;;18.77;;
18082;SDS011;9168;51.194;6.840;2023-11-18T03:09:52;39.17;;;19.17;;
18082;SDS011;9168;51.194;6.840;2023-11-18T03:12:22;39.60;;;19.33;;
18082;SDS011;9168;51.194;6.840;2023-11-18T03:14:52;36.90;;;18.20;;
18082;SDS011;9168;51.194;6.840;2023-11-18T03:17:20;39.90;;;17.33;;
18082;SDS011;9168;51.194;6.840;2023-11-18T03:19:47;38.53;;;17.55;;
18082;SDS011;9168;51.194;6.840;2023-11-18T03:22:15;41.42;;;19.55;;
18082;SDS011;9168;51.194;6.840;2023-11-18T03:24:42;37.92;;;18.58;;
18082;SDS011;9168;51.194;6.840;2023-11-18T03:27:09;35.75;;;17.88;;
18082;SDS011;9168;51.194;6.840;2023-11-18T03:29:36;39.60;;;17.95;;
18082;SDS011;9168;51.194;6.840;2023-11-18T03:32:03;36.33;;;17.98;;
18082;SDS011;9168;51.194;6.840;2023-11-18T03:34:32;41.10;;;18.75;;
18082;SDS011;9168;51.194;6.840;2023-11-18T03:36:59;35.97;;;18.30;;
18082;SDS011;9168;51.194;6.840;2023-11-18T03:39:25;36.40;;;17.27;;
18082;SDS011;9168;51.194;6.840;2023-11-18T03:41:53;34.20;;;17.05;;
18082;SDS011;9168;51.194;6.840;2023-11-18T03:44:22;38.45;;;19.10;;
18082;SDS011;9168;51.194;6.840;2023-11-18T03:46:50;37.05;;;17.55;;
18082;SDS011;9168;51.194;6.840;2023-11-18T03:49:16;36.40;;;17.13;;
18082;SDS011;9168;51.194;6.840;2023-11-18T03:51:46;35.33;;;16.23;;
18082;SDS011;9168;51.194;6.840;2023-11-18T03:54:13;41.13;;;18.00;;
18082;SDS011;9168;51.194;6.840;2023-11-18T03:56:40;37.45;;;17.15;;
18082;SDS011;9168;51.194;6.840;2023-11-18T03:59:07;35.03;;;17.35;;
18082;SDS011;9168;51.194;6.840;2023-11-18T04:01:34;39.58;;;16.60;;
18082;SDS011;9168;51.194;6.840;2023-11-18T04:04:01;38.10;;;18.38;;
18082;SDS011;9168;51.194;6.840;2023-11-18T04:06:29;34.17;;;16.75;;
18082;SDS011;9168;51.194;6.840;2023-11-18T04:08:57;38.10;;;18.50;;
18082;SDS011;9168;51.194;6.840;2023-11-18T04:11:24;34.10;;;17.10;;
18082;SDS011;9168;51.194;6.840;2023-11-18T04:13:51;35.10;;;17.73;;
18082;SDS011;9168;51.194;6.840;2023-11-18T04:16:18;36.28;;;17.85;;
18082;SDS011;9168;51.194;6.840;2023-11-18T04:18:45;49.72;;;17.67;;
18082;SDS011;9168;51.194;6.840;2023-11-18T04:21:12;33.92;;;16.63;;
18082;SDS011;9168;51.194;6.840;2023-11-18T04:23:41;39.60;;;16.75;;
18082;SDS011;9168;51.194;6.840;2023-11-18T04:26:10;35.22;;;16.65;;
18082;SDS011;9168;51.194;6.840;2023-11-18T04:28:37;40.63;;;18.23;;
18082;SDS011;9168;51.194;6.840;2023-11-18T04:31:04;32.10;;;16.23;;
18082;SDS011;9168;51.194;6.840;2023-11-18T04:33:31;35.15;;;17.08;;
18082;SDS011;9168;51.194;6.840;2023-11-18T04:35:59;33.97;;;15.70;;
18082;SDS011;9168;51.194;6.840;2023-11-18T04:38:26;32.38;;;16.35;;
18082;SDS011;9168;51.194;6.840;2023-11-18T04:40:53;34.85;;;17.00;;
18082;SDS011;9168;51.194;6.840;2023-11-18T04:43:22;31.67;;;15.90;;
18082;SDS011;9168;51.194;6.840;2023-11-18T04:45:48;33.92;;;17.30;;
18082;SDS011;9168;51.194;6.840;2023-11-18T04:48:15;32.20;;;16.33;;
18082;SDS011;9168;51.194;6.840;2023-11-18T04:50:42;39.30;;;17.80;;
18082;SDS011;9168;51.194;6.840;2023-11-18T04:53:10;34.30;;;16.42;;
18082;SDS011;9168;51.194;6.840;2023-11-18T04:55:37;34.72;;;16.60;;
18082;SDS011;9168;51.194;6.840;2023-11-18T04:58:04;35.88;;;16.27;;
18082;SDS011;9168;51.194;6.840;2023-11-18T05:00:33;35.45;;;17.00;;
18082;SDS011;9168;51.194;6.840;2023-11-18T05:03:00;36.22;;;16.25;;
18082;SDS011;9168;51.194;6.840;2023-11-18T05:05:28;34.80;;;17.13;;
18082;SDS011;9168;51.194;6.840;2023-11-18T05:07:55;33.10;;;16.48;;
18082;SDS011;9168;51.194;6.840;2023-11-18T05:10:22;35.15;;;16.23;;
18082;SDS011;9168;51.194;6.840;2023-11-18T05:12:49;33.53;;;16.38;;
18082;SDS011;9168;51.194;6.840;2023-11-18T05:15:20;37.80;;;16.67;;
18082;SDS011;9168;51.194;6.840;2023-11-18T05:17:51;33.80;;;16.90;;
18082;SDS011;9168;51.194;6.840;2023-11-18T05:20:18;33.10;;;15.93;;
18082;SDS011;9168;51.194;6.840;2023-11-18T05:22:45;34.63;;;16.83;;
18082;SDS011;9168;51.194;6.840;2023-11-18T05:25:12;37.67;;;17.73;;
18082;SDS011;9168;51.194;6.840;2023-11-18T05:27:39;37.15;;;17.40;;
18082;SDS011;9168;51.194;6.840;2023-11-18T05:30:07;38.22;;;18.13;;
18082;SDS011;9168;51.194;6.840;2023-11-18T05:32:34;36.83;;;17.08;;
18082;SDS011;9168;51.194;6.840;2023-11-18T05:35:03;32.60;;;16.42;;
18082;SDS011;9168;51.194;6.840;2023-11-18T05:37:31;36.45;;;17.73;;
18082;SDS011;9168;51.194;6.840;2023-11-18T05:40:00;36.22;;;16.92;;
18082;SDS011;9168;51.194;6.840;2023-11-18T05:42:32;35.42;;;16.98;;
18082;SDS011;9168;51.194;6.840;2023-11-18T05:45:01;41.40;;;18.67;;
18082;SDS011;9168;51.194;6.840;2023-11-18T05:47:28;38.47;;;18.02;;
18082;SDS011;9168;51.194;6.840;2023-11-18T05:49:55;36.23;;;18.13;;
18082;SDS011;9168;51.194;6.840;2023-11-18T05:52:23;36.85;;;19.10;;
18082;SDS011;9168;51.194;6.840;2023-11-18T05:54:50;38.78;;;17.50;;
18082;SDS011;9168;51.194;6.840;2023-11-18T05:57:17;34.88;;;17.88;;
18082;SDS011;9168;51.194;6.840;2023-11-18T05:59:44;35.13;;;17.95;;
18082;SDS011;9168;51.194;6.840;2023-11-18T06:02:13;37.13;;;16.98;;
18082;SDS011;9168;51.194;6.840;2023-11-18T06:04:43;39.17;;;18.33;;
18082;SDS011;9168;51.194;6.840;2023-11-18T06:07:10;37.80;;;17.45;;
18082;SDS011;9168;51.194;6.840;2023-11-18T06:09:39;37.42;;;16.98;;
18082;SDS011;9168;51.194;6.840;2023-11-18T06:12:07;35.38;;;18.02;;
18082;SDS011;9168;51.194;6.840;2023-11-18T06:14:35;38.03;;;18.05;;
18082;SDS011;9168;51.194;6.840;2023-11-18T06:17:02;37.38;;;18.75;;
18082;SDS011;9168;51.194;6.840;2023-11-18T06:19:29;36.80;;;18.20;;
18082;SDS011;9168;51.194;6.840;2023-11-18T06:21:56;40.30;;;17.80;;
18082;SDS011;9168;51.194;6.840;2023-11-18T06:24:23;34.42;;;17.60;;
18082;SDS011;9168;51.194;6.840;2023-11-18T06:26:51;42.10;;;18.27;;
18082;SDS011;9168;51.194;6.840;2023-11-18T06:29:18;33.38;;;17.50;;
18082;SDS011;9168;51.194;6.840;2023-11-18T06:31:45;40.38;;;18.40;;
18082;SDS011;9168;51.194;6.840;2023-11-18T06:34:12;39.17;;;18.90;;
18082;SDS011;9168;51.194;6.840;2023-11-18T06:36:39;38.28;;;17.77;;
18082;SDS011;9168;51.194;6.840;2023-11-18T06:39:06;38.35;;;18.00;;
18082;SDS011;9168;51.194;6.840;2023-11-18T06:41:33;39.15;;;19.10;;
18082;SDS011;9168;51.194;6.840;2023-11-18T06:44:04;37.92;;;18.38;;
18082;SDS011;9168;51.194;6.840;2023-11-18T06:46:37;38.35;;;19.05;;
18082;SDS011;9168;51.194;6.840;2023-11-18T06:49:05;34.22;;;17.52;;
18082;SDS011;9168;51.194;6.840;2023-11-18T06:51:33;36.97;;;17.88;;
18082;SDS011;9168;51.194;6.840;2023-11-18T06:54:03;38.70;;;18.15;;
18082;SDS011;9168;51.194;6.840;2023-11-18T06:56:34;32.88;;;17.25;;
18082;SDS011;9168;51.194;6.840;2023-11-18T06:59:02;38.45;;;17.92;;
18082;SDS011;9168;51.194;6.840;2023-11-18T07:01:31;34.53;;;17.20;;
18082;SDS011;9168;51.194;6.840;2023-11-18T07:03:58;35.58;;;18.23;;
18082;SDS011;9168;51.194;6.840;2023-11-18T07:06:25;37.07;;;17.73;;
18082;SDS011;9168;51.194;6.840;2023-11-18T07:08:53;35.55;;;17.42;;
18082;SDS011;9168;51.194;6.840;2023-11-18T07:11:21;35.13;;;18.10;;
18082;SDS011;9168;51.194;6.840;2023-11-18T07:13:48;34.28;;;17.02;;
18082;SDS011;9168;51.194;6.840;2023-11-18T07:16:22;35.22;;;17.27;;
18082;SDS011;9168;51.194;6.840;2023-11-18T07:18:50;36.30;;;18.02;;
18082;SDS011;9168;51.194;6.840;2023-11-18T07:21:17;34.80;;;17.73;;
18082;SDS011;9168;51.194;6.840;2023-11-18T07:23:44;35.25;;;17.00;;
18082;SDS011;9168;51.194;6.840;2023-11-18T07:26:12;35.08;;;18.05;;
18082;SDS011;9168;51.194;6.840;2023-11-18T07:28:40;35.40;;;18.38;;
18082;SDS011;9168;51.194;6.840;2023-11-18T07:31:08;35.97;;;16.20;;
18082;SDS011;9168;51.194;6.840;2023-11-18T07:33:37;36.08;;;17.73;;
18082;SDS011;9168;51.194;6.840;2023-11-18T07:36:04;34.38;;;18.00;;
18082;SDS011;9168;51.194;6.840;2023-11-18T07:38:36;34.88;;;17.42;;
18082;SDS011;9168;51.194;6.840;2023-11-18T07:41:03;33.60;;;17.55;;
18082;SDS011;9168;51.194;6.840;2023-11-18T07:43:33;36.25;;;16.83;;
18082;SDS011;9168;51.194;6.840;2023-11-18T07:46:01;33.50;;;17.15;;
18082;SDS011;9168;51.194;6.840;2023-11-18T07:48:28;36.83;;;17.55;;
18082;SDS011;9168;51.194;6.840;2023-11-18T07:50:57;34.05;;;16.67;;
18082;SDS011;9168;51.194;6.840;2023-11-18T07:53:25;32.80;;;16.98;;
18082;SDS011;9168;51.194;6.840;2023-11-18T07:55:54;36.03;;;17.70;;
18082;SDS011;9168;51.194;6.840;2023-11-18T07:58:21;35.45;;;17.50;;
18082;SDS011;9168;51.194;6.840;2023-11-18T08:00:48;33.20;;;16.70;;
18082;SDS011;9168;51.194;6.840;2023-11-18T08:03:15;32.67;;;17.10;;
18082;SDS011;9168;51.194;6.840;2023-11-18T08:05:43;37.90;;;17.88;;
18082;SDS011;9168;51.194;6.840;2023-11-18T08:08:12;35.83;;;16.48;;
18082;SDS011;9168;51.194;6.840;2023-11-18T08:10:42;31.20;;;15.98;;
18082;SDS011;9168;51.194;6.840;2023-11-18T08:13:10;29.17;;;15.15;;
18082;SDS011;9168;51.194;6.840;2023-11-18T08:15:40;28.27;;;15.98;;
18082;SDS011;9168;51.194;6.840;2023-11-18T08:18:10;33.35;;;15.90;;
18082;SDS011;9168;51.194;6.840;2023-11-18T08:20:37;28.50;;;15.55;;
18082;SDS011;9168;51.194;6.840;2023-11-18T08:23:04;29.45;;;15.38;;
18082;SDS011;9168;51.194;6.840;2023-11-18T08:25:33;25.95;;;14.88;;
18082;SDS011;9168;51.194;6.840;2023-11-18T08:28:01;30.73;;;15.43;;
18082;SDS011;9168;51.194;6.840;2023-11-18T08:30:28;33.10;;;15.13;;
18082;SDS011;9168;51.194;6.840;2023-11-18T08:32:57;27.60;;;14.40;;
18082;SDS011;9168;51.194;6.840;2023-11-18T08:35:24;34.60;;;15.07;;
18082;SDS011;9168;51.194;6.840;2023-11-18T08:37:51;27.40;;;14.43;;
18082;SDS011;9168;51.194;6.840;2023-11-18T08:40:18;26.70;;;13.18;;
18082;SDS011;9168;51.194;6.840;2023-11-18T08:42:49;24.15;;;13.23;;
18082;SDS011;9168;51.194;6.840;2023-11-18T08:45:16;24.73;;;13.20;;
18082;SDS011;9168;51.194;6.840;2023-11-18T08:47:46;27.35;;;13.25;;
18082;SDS011;9168;51.194;6.840;2023-11-18T08:50:14;26.50;;;13.68;;
18082;SDS011;9168;51.194;6.840;2023-11-18T08:52:42;23.60;;;13.43;;
18082;SDS011;9168;51.194;6.840;2023-11-18T08:55:12;25.38;;;13.32;;
18082;SDS011;9168;51.194;6.840;2023-11-18T08:57:42;29.58;;;12.95;;
18082;SDS011;9168;51.194;6.840;2023-11-18T09:00:25;23.15;;;12.38;;
18082;SDS011;9168;51.194;6.840;2023-11-18T09:03:10;28.90;;;13.05;;
18082;SDS011;9168;51.194;6.840;2023-11-18T09:05:42;22.02;;;12.23;;
18082;SDS011;9168;51.194;6.840;2023-11-18T09:08:22;23.25;;;11.88;;
18082;SDS011;9168;51.194;6.840;2023-11-18T09:10:49;20.85;;;11.35;;
18082;SDS011;9168;51.194;6.840;2023-11-18T09:13:19;22.15;;;12.13;;
18082;SDS011;9168;51.194;6.840;2023-11-18T09:15:48;23.70;;;11.45;;
18082;SDS011;9168;51.194;6.840;2023-11-18T09:18:15;22.52;;;11.50;;
18082;SDS011;9168;51.194;6.840;2023-11-18T09:20:43;21.83;;;11.60;;
18082;SDS011;9168;51.194;6.840;2023-11-18T09:23:10;23.77;;;12.48;;
18082;SDS011;9168;51.194;6.840;2023-11-18T09:25:38;19.15;;;10.55;;
18082;SDS011;9168;51.194;6.840;2023-11-18T09:28:06;24.00;;;12.00;;
18082;SDS011;9168;51.194;6.840;2023-11-18T09:30:36;26.17;;;11.82;;
18082;SDS011;9168;51.194;6.840;2023-11-18T09:33:16;20.65;;;11.05;;
18082;SDS011;9168;51.194;6.840;2023-11-18T09:35:50;20.70;;;10.63;;
18082;SDS011;9168;51.194;6.840;2023-11-18T09:38:21;18.65;;;9.98;;
18082;SDS011;9168;51.194;6.840;2023-11-18T09:40:47;19.95;;;10.65;;
18082;SDS011;9168;51.194;6.840;2023-11-18T09:43:17;21.88;;;9.70;;
18082;SDS011;9168;51.194;6.840;2023-11-18T09:45:47;22.77;;;11.20;;
18082;SDS011;9168;51.194;6.840;2023-11-18T09:48:21;20.88;;;10.38;;
18082;SDS011;9168;51.194;6.840;2023-11-18T09:50:51;22.85;;;10.77;;
18082;SDS011;9168;51.194;6.840;2023-11-18T09:53:19;20.58;;;10.25;;
18082;SDS011;9168;51.194;6.840;2023-11-18T09:55:52;18.95;;;10.07;;
18082;SDS011;9168;51.194;6.840;2023-11-18T09:58:25;22.50;;;10.95;;
18082;SDS011;9168;51.194;6.840;2023-11-18T10:01:00;27.33;;;11.05;;
18082;SDS011;9168;51.194;6.840;2023-11-18T10:03:30;22.58;;;10.02;;
18082;SDS011;9168;51.194;6.840;2023-11-18T10:06:01;19.77;;;10.52;;
18082;SDS011;9168;51.194;6.840;2023-11-18T10:08:30;19.98;;;10.50;;
18082;SDS011;9168;51.194;6.840;2023-11-18T10:10:57;21.25;;;10.00;;
18082;SDS011;9168;51.194;6.840;2023-11-18T10:13:30;21.45;;;10.10;;
18082;SDS011;9168;51.194;6.840;2023-11-18T10:15:59;20.08;;;9.55;;
18082;SDS011;9168;51.194;6.840;2023-11-18T10:18:31;18.98;;;9.93;;
18082;SDS011;9168;51.194;6.840;2023-11-18T10:21:02;20.90;;;10.02;;
18082;SDS011;9168;51.194;6.840;2023-11-18T10:23:33;18.92;;;9.57;;
18082;SDS011;9168;51.194;6.840;2023-11-18T10:26:02;21.35;;;10.13;;
18082;SDS011;9168;51.194;6.840;2023-11-18T10:28:30;17.85;;;9.52;;
18082;SDS011;9168;51.194;6.840;2023-11-18T10:30:59;24.88;;;9.93;;
18082;SDS011;9168;51.194;6.840;2023-11-18T10:33:29;17.83;;;9.57;;
18082;SDS011;9168;51.194;6.840;2023-11-18T10:35:58;23.33;;;10.32;;
18082;SDS011;9168;51.194;6.840;2023-11-18T10:38:29;18.33;;;9.70;;
18082;SDS011;9168;51.194;6.840;2023-11-18T10:40:57;24.33;;;9.73;;
18082;SDS011;9168;51.194;6.840;2023-11-18T10:43:26;21.20;;;9.50;;
18082;SDS011;9168;51.194;6.840;2023-11-18T10:46:03;19.35;;;9.23;;
18082;SDS011;9168;51.194;6.840;2023-11-18T10:48:38;18.95;;;8.90;;
18082;SDS011;9168;51.194;6.840;2023-11-18T10:51:08;20.23;;;9.38;;
18082;SDS011;9168;51.194;6.840;2023-11-18T10:53:38;20.42;;;9.27;;
18082;SDS011;9168;51.194;6.840;2023-11-18T10:56:16;18.35;;;9.35;;
18082;SDS011;9168;51.194;6.840;2023-11-18T10:58:49;19.38;;;9.70;;
18082;SDS011;9168;51.194;6.840;2023-11-18T11:01:17;19.33;;;9.57;;
18082;SDS011;9168;51.194;6.840;2023-11-18T11:03:55;18.80;;;10.40;;
18082;SDS011;9168;51.194;6.840;2023-11-18T11:06:23;19.55;;;8.70;;
18082;SDS011;9168;51.194;6.840;2023-11-18T11:08:50;18.73;;;8.90;;
18082;SDS011;9168;51.194;6.840;2023-11-18T11:11:18;15.77;;;9.02;;
18082;SDS011;9168;51.194;6.840;2023-11-18T11:13:48;16.90;;;8.73;;
18082;SDS011;9168;51.194;6.840;2023-11-18T11:16:18;19.23;;;8.88;;
18082;SDS011;9168;51.194;6.840;2023-11-18T11:18:47;20.15;;;9.50;;
18082;SDS011;9168;51.194;6.840;2023-11-18T11:21:21;21.20;;;9.15;;
18082;SDS011;9168;51.194;6.840;2023-11-18T11:23:53;18.77;;;9.25;;
18082;SDS011;9168;51.194;6.840;2023-11-18T11:26:30;19.23;;;8.40;;
18082;SDS011;9168;51.194;6.840;2023-11-18T11:29:08;20.00;;;8.27;;
18082;SDS011;9168;51.194;6.840;2023-11-18T11:31:47;23.55;;;9.05;;
18082;SDS011;9168;51.194;6.840;2023-11-18T11:34:21;15.73;;;9.00;;
18082;SDS011;9168;51.194;6.840;2023-11-18T11:36:55;23.23;;;9.35;;
18082;SDS011;9168;51.194;6.840;2023-11-18T11:39:26;21.52;;;8.25;;
18082;SDS011;9168;51.194;6.840;2023-11-18T11:41:55;18.40;;;8.90;;
18082;SDS011;9168;51.194;6.840;2023-11-18T11:44:24;20.63;;;9.40;;
18082;SDS011;9168;51.194;6.840;2023-11-18T11:46:54;18.15;;;9.02;;
18082;SDS011;9168;51.194;6.840;2023-11-18T11:49:25;17.10;;;8.80;;
18082;SDS011;9168;51.194;6.840;2023-11-18T11:51:57;25.02;;;9.63;;
18082;SDS011;9168;51.194;6.840;2023-11-18T11:54:30;24.02;;;9.52;;
18082;SDS011;9168;51.194;6.840;2023-11-18T11:57:02;16.67;;;8.48;;
18082;SDS011;9168;51.194;6.840;2023-11-18T12:02:23;18.42;;;9.10;;
18082;SDS011;9168;51.194;6.840;2023-11-18T12:04:54;16.85;;;9.55;;
18082;SDS011;9168;51.194;6.840;2023-11-18T12:07:26;18.50;;;9.30;;
18082;SDS011;9168;51.194;6.840;2023-11-18T12:09:56;16.55;;;8.65;;
18082;SDS011;9168;51.194;6.840;2023-11-18T12:12:25;23.73;;;8.95;;
18082;SDS011;9168;51.194;6.840;2023-11-18T12:14:52;18.98;;;9.50;;
18082;SDS011;9168;51.194;6.840;2023-11-18T12:17:22;21.55;;;9.88;;
18082;SDS011;9168;51.194;6.840;2023-11-18T12:19:53;19.60;;;9.00;;
18082;SDS011;9168;51.194;6.840;2023-11-18T12:22:24;21.83;;;8.88;;
18082;SDS011;9168;51.194;6.840;2023-11-18T12:28:10;18.05;;;9.00;;
18082;SDS011;9168;51.194;6.840;2023-11-18T12:30:41;19.90;;;9.43;;
18082;SDS011;9168;51.194;6.840;2023-11-18T12:33:20;26.80;;;9.68;;
18082;SDS011;9168;51.194;6.840;2023-11-18T12:38:58;21.33;;;10.13;;
18082;SDS011;9168;51.194;6.840;2023-11-18T12:41:42;21.48;;;9.60;;
18082;SDS011;9168;51.194;6.840;2023-11-18T12:44:22;20.70;;;9.15;;
18082;SDS011;9168;51.194;6.840;2023-11-18T12:46:58;17.55;;;7.60;;
18082;SDS011;9168;51.194;6.840;2023-11-18T12:49:39;19.95;;;8.55;;
18082;SDS011;9168;51.194;6.840;2023-11-18T12:52:07;18.20;;;9.68;;
18082;SDS011;9168;51.194;6.840;2023-11-18T12:54:37;17.85;;;8.38;;
18082;SDS011;9168;51.194;6.840;2023-11-18T12:57:08;16.08;;;8.07;;
18082;SDS011;9168;51.194;6.840;2023-11-18T12:59:39;16.88;;;7.45;;
18082;SDS011;9168;51.194;6.840;2023-11-18T13:02:07;17.48;;;7.65;;
18082;SDS011;9168;51.194;6.840;2023-11-18T13:04:38;16.80;;;7.50;;
18082;SDS011;9168;51.194;6.840;2023-11-18T13:07:06;18.48;;;7.03;;
18082;SDS011;9168;51.194;6.840;2023-11-18T13:09:37;15.93;;;7.72;;
18082;SDS011;9168;51.194;6.840;2023-11-18T13:12:06;17.45;;;7.53;;
18082;SDS011;9168;51.194;6.840;2023-11-18T13:14:34;13.98;;;7.07;;
18082;SDS011;9168;51.194;6.840;2023-11-18T13:17:02;22.88;;;7.78;;
18082;SDS011;9168;51.194;6.840;2023-11-18T13:19:31;18.27;;;7.22;;
18082;SDS011;9168;51.194;6.840;2023-11-18T13:22:00;21.40;;;7.50;;
18082;SDS011;9168;51.194;6.840;2023-11-18T13:24:28;13.95;;;7.05;;
18082;SDS011;9168;51.194;6.840;2023-11-18T13:26:57;17.48;;;7.70;;
18082;SDS011;9168;51.194;6.840;2023-11-18T13:29:28;19.35;;;7.25;;
18082;SDS011;9168;51.194;6.840;2023-11-18T13:31:56;17.00;;;7.00;;
18082;SDS011;9168;51.194;6.840;2023-11-18T13:34:25;14.55;;;7.00;;
18082;SDS011;9168;51.194;6.840;2023-11-18T13:36:55;16.25;;;7.22;;
18082;SDS011;9168;51.194;6.840;2023-11-18T13:39:22;22.67;;;7.07;;
18082;SDS011;9168;51.194;6.840;2023-11-18T13:41:53;18.60;;;6.78;;
18082;SDS011;9168;51.194;6.840;2023-11-18T13:44:34;13.80;;;6.00;;
18082;SDS011;9168;51.194;6.840;2023-11-18T13:47:03;13.02;;;5.38;;
18082;SDS011;9168;51.194;6.840;2023-11-18T13:49:31;14.25;;;6.47;;
18082;SDS011;9168;51.194;6.840;2023-11-18T13:51:58;12.15;;;5.35;;
18082;SDS011;9168;51.194;6.840;2023-11-18T13:54:27;13.18;;;5.80;;
18082;SDS011;9168;51.194;6.840;2023-11-18T13:56:54;14.20;;;5.00;;
18082;SDS011;9168;51.194;6.840;2023-11-18T13:59:23;13.80;;;4.70;;
18082;SDS011;9168;51.194;6.840;2023-11-18T14:01:53;12.30;;;4.97;;
18082;SDS011;9168;51.194;6.840;2023-11-18T14:04:22;13.90;;;4.57;;
18082;SDS011;9168;51.194;6.840;2023-11-18T14:06:50;16.73;;;4.78;;
18082;SDS011;9168;51.194;6.840;2023-11-18T14:09:18;13.48;;;4.80;;
18082;SDS011;9168;51.194;6.840;2023-11-18T14:11:47;12.75;;;4.90;;
18082;SDS011;9168;51.194;6.840;2023-11-18T14:14:14;11.32;;;4.53;;
18082;SDS011;9168;51.194;6.840;2023-11-18T14:16:42;11.20;;;4.40;;
18082;SDS011;9168;51.194;6.840;2023-11-18T14:19:11;16.13;;;4.82;;
18082;SDS011;9168;51.194;6.840;2023-11-18T14:21:38;9.80;;;4.10;;
18082;SDS011;9168;51.194;6.840;2023-11-18T14:24:06;11.25;;;3.90;;
18082;SDS011;9168;51.194;6.840;2023-11-18T14:26:33;12.05;;;4.50;;
18082;SDS011;9168;51.194;6.840;2023-11-18T14:29:00;15.02;;;4.80;;
18082;SDS011;9168;51.194;6.840;2023-11-18T14:31:27;14.20;;;4.45;;
18082;SDS011;9168;51.194;6.840;2023-11-18T14:33:55;13.18;;;4.82;;
18082;SDS011;9168;51.194;6.840;2023-11-18T14:36:25;12.15;;;4.10;;
18082;SDS011;9168;51.194;6.840;2023-11-18T14:38:51;12.18;;;4.57;;
18082;SDS011;9168;51.194;6.840;2023-11-18T14:41:18;13.38;;;4.38;;
18082;SDS011;9168;51.194;6.840;2023-11-18T14:43:49;14.30;;;4.90;;
18082;SDS011;9168;51.194;6.840;2023-11-18T14:46:16;12.15;;;4.22;;
18082;SDS011;9168;51.194;6.840;2023-11-18T14:48:44;12.50;;;4.40;;
18082;SDS011;9168;51.194;6.840;2023-11-18T14:51:11;14.30;;;5.20;;
18082;SDS011;9168;51.194;6.840;2023-11-18T14:53:40;14.73;;;5.15;;
18082;SDS011;9168;51.194;6.840;2023-11-18T14:56:08;13.05;;;4.88;;
18082;SDS011;9168;51.194;6.840;2023-11-18T14:58:35;14.95;;;4.97;;